sensor_id;sensor_type;location;lat;lon;timestamp;P1;durP1;ratioP1;P2;durP2;ratioP2
7983;SDS011;4037;47.980;10.172;2023-03-01T00:01:26;26.43;;;17.00;;
7983;SDS011;4037;47.980;10.172;2023-03-01T00:03:52;25.63;;;17.10;;
7983;SDS011;4037;47.980;10.172;2023-03-01T00:06:19;25.47;;;17.67;;
7983;SDS011;4037;47.980;10.172;2023-03-01T00:08:45;27.47;;;17.77;;
7983;SDS011;4037;47.980;10.172;2023-03-01T00:13:37;26.23;;;18.60;;
7983;SDS011;4037;47.980;10.172;2023-03-01T00:16:04;25.57;;;18.63;;
7983;SDS011;4037;47.980;10.172;2023-03-01T00:18:31;25.90;;;17.60;;
7983;SDS011;4037;47.980;10.172;2023-03-01T00:20:57;27.07;;;16.57;;
7983;SDS011;4037;47.980;10.172;2023-03-01T00:23:24;25.63;;;17.57;;
7983;SDS011;4037;47.980;10.172;2023-03-01T00:25:50;30.63;;;17.47;;
7983;SDS011;4037;47.980;10.172;2023-03-01T00:28:16;28.20;;;18.60;;
7983;SDS011;4037;47.980;10.172;2023-03-01T00:30:42;26.00;;;17.87;;
7983;SDS011;4037;47.980;10.172;2023-03-01T00:33:08;26.60;;;17.27;;
7983;SDS011;4037;47.980;10.172;2023-03-01T00:35:35;28.97;;;18.30;;
7983;SDS011;4037;47.980;10.172;2023-03-01T00:38:01;27.77;;;18.23;;
7983;SDS011;4037;47.980;10.172;2023-03-01T00:40:28;26.27;;;17.10;;
7983;SDS011;4037;47.980;10.172;2023-03-01T00:42:54;26.03;;;18.23;;
7983;SDS011;4037;47.980;10.172;2023-03-01T00:45:20;25.93;;;17.80;;
7983;SDS011;4037;47.980;10.172;2023-03-01T00:47:46;26.93;;;17.50;;
7983;SDS011;4037;47.980;10.172;2023-03-01T00:50:13;26.10;;;18.60;;
7983;SDS011;4037;47.980;10.172;2023-03-01T00:52:39;24.20;;;17.03;;
7983;SDS011;4037;47.980;10.172;2023-03-01T00:55:05;28.77;;;18.57;;
7983;SDS011;4037;47.980;10.172;2023-03-01T00:57:32;25.77;;;17.83;;
7983;SDS011;4037;47.980;10.172;2023-03-01T00:59:58;26.83;;;17.63;;
7983;SDS011;4037;47.980;10.172;2023-03-01T01:02:24;27.03;;;17.73;;
7983;SDS011;4037;47.980;10.172;2023-03-01T01:04:50;26.17;;;17.80;;
7983;SDS011;4037;47.980;10.172;2023-03-01T01:07:16;25.27;;;17.43;;
7983;SDS011;4037;47.980;10.172;2023-03-01T01:09:45;24.60;;;15.90;;
7983;SDS011;4037;47.980;10.172;2023-03-01T01:12:11;27.47;;;18.53;;
7983;SDS011;4037;47.980;10.172;2023-03-01T01:14:37;25.57;;;17.80;;
7983;SDS011;4037;47.980;10.172;2023-03-01T01:17:15;27.70;;;18.33;;
7983;SDS011;4037;47.980;10.172;2023-03-01T01:19:50;24.83;;;17.83;;
7983;SDS011;4037;47.980;10.172;2023-03-01T01:22:35;28.37;;;17.23;;
7983;SDS011;4037;47.980;10.172;2023-03-01T01:25:01;25.53;;;17.80;;
7983;SDS011;4037;47.980;10.172;2023-03-01T01:27:27;27.90;;;17.83;;
7983;SDS011;4037;47.980;10.172;2023-03-01T01:29:53;28.13;;;18.33;;
7983;SDS011;4037;47.980;10.172;2023-03-01T01:32:19;28.23;;;18.33;;
7983;SDS011;4037;47.980;10.172;2023-03-01T01:34:45;32.47;;;19.17;;
7983;SDS011;4037;47.980;10.172;2023-03-01T01:37:11;27.63;;;17.73;;
7983;SDS011;4037;47.980;10.172;2023-03-01T01:39:37;27.47;;;18.73;;
7983;SDS011;4037;47.980;10.172;2023-03-01T01:42:03;24.90;;;17.53;;
7983;SDS011;4037;47.980;10.172;2023-03-01T01:44:29;25.80;;;18.53;;
7983;SDS011;4037;47.980;10.172;2023-03-01T01:49:27;26.13;;;16.70;;
7983;SDS011;4037;47.980;10.172;2023-03-01T01:52:04;28.47;;;18.87;;
7983;SDS011;4037;47.980;10.172;2023-03-01T01:57:19;26.07;;;18.23;;
7983;SDS011;4037;47.980;10.172;2023-03-01T01:59:47;27.97;;;17.77;;
7983;SDS011;4037;47.980;10.172;2023-03-01T02:02:17;30.63;;;18.30;;
7983;SDS011;4037;47.980;10.172;2023-03-01T02:05:11;26.30;;;17.17;;
7983;SDS011;4037;47.980;10.172;2023-03-01T02:07:56;28.13;;;18.00;;
7983;SDS011;4037;47.980;10.172;2023-03-01T02:10:23;27.93;;;18.90;;
7983;SDS011;4037;47.980;10.172;2023-03-01T02:12:50;30.40;;;18.07;;
7983;SDS011;4037;47.980;10.172;2023-03-01T02:15:17;28.27;;;18.03;;
7983;SDS011;4037;47.980;10.172;2023-03-01T02:17:49;28.63;;;18.10;;
7983;SDS011;4037;47.980;10.172;2023-03-01T02:20:30;26.23;;;18.97;;
7983;SDS011;4037;47.980;10.172;2023-03-01T02:23:02;30.87;;;19.33;;
7983;SDS011;4037;47.980;10.172;2023-03-01T02:25:40;29.43;;;19.33;;
7983;SDS011;4037;47.980;10.172;2023-03-01T02:30:43;24.03;;;16.57;;
7983;SDS011;4037;47.980;10.172;2023-03-01T02:33:29;28.40;;;19.07;;
7983;SDS011;4037;47.980;10.172;2023-03-01T02:36:01;27.50;;;19.07;;
7983;SDS011;4037;47.980;10.172;2023-03-01T02:38:28;28.17;;;18.80;;
7983;SDS011;4037;47.980;10.172;2023-03-01T02:40:55;28.60;;;19.00;;
7983;SDS011;4037;47.980;10.172;2023-03-01T02:46:24;25.43;;;18.03;;
7983;SDS011;4037;47.980;10.172;2023-03-01T02:49:18;28.67;;;18.10;;
7983;SDS011;4037;47.980;10.172;2023-03-01T02:52:30;28.90;;;18.67;;
7983;SDS011;4037;47.980;10.172;2023-03-01T02:54:34;27.73;;;17.77;;
7983;SDS011;4037;47.980;10.172;2023-03-01T02:57:02;27.93;;;19.70;;
7983;SDS011;4037;47.980;10.172;2023-03-01T02:59:29;27.30;;;18.83;;
7983;SDS011;4037;47.980;10.172;2023-03-01T03:07:49;27.10;;;18.57;;
7983;SDS011;4037;47.980;10.172;2023-03-01T03:10:17;27.73;;;17.60;;
7983;SDS011;4037;47.980;10.172;2023-03-01T03:12:44;28.47;;;19.23;;
7983;SDS011;4037;47.980;10.172;2023-03-01T03:15:10;28.53;;;18.23;;
7983;SDS011;4037;47.980;10.172;2023-03-01T03:17:37;29.47;;;19.07;;
7983;SDS011;4037;47.980;10.172;2023-03-01T03:20:05;28.73;;;18.80;;
7983;SDS011;4037;47.980;10.172;2023-03-01T03:22:31;26.00;;;19.47;;
7983;SDS011;4037;47.980;10.172;2023-03-01T03:24:59;29.40;;;17.63;;
7983;SDS011;4037;47.980;10.172;2023-03-01T03:27:25;33.33;;;19.33;;
7983;SDS011;4037;47.980;10.172;2023-03-01T03:29:51;30.07;;;19.67;;
7983;SDS011;4037;47.980;10.172;2023-03-01T03:32:17;28.13;;;19.60;;
7983;SDS011;4037;47.980;10.172;2023-03-01T03:34:43;28.03;;;18.63;;
7983;SDS011;4037;47.980;10.172;2023-03-01T03:37:09;28.23;;;18.60;;
7983;SDS011;4037;47.980;10.172;2023-03-01T03:39:54;27.20;;;18.60;;
7983;SDS011;4037;47.980;10.172;2023-03-01T03:42:21;28.40;;;17.80;;
7983;SDS011;4037;47.980;10.172;2023-03-01T03:44:47;28.17;;;18.43;;
7983;SDS011;4037;47.980;10.172;2023-03-01T03:47:13;27.07;;;18.43;;
7983;SDS011;4037;47.980;10.172;2023-03-01T03:49:39;29.67;;;18.90;;
7983;SDS011;4037;47.980;10.172;2023-03-01T03:52:05;28.67;;;18.50;;
7983;SDS011;4037;47.980;10.172;2023-03-01T03:54:38;29.70;;;17.97;;
7983;SDS011;4037;47.980;10.172;2023-03-01T03:57:04;29.90;;;18.27;;
7983;SDS011;4037;47.980;10.172;2023-03-01T03:59:30;27.30;;;18.70;;
7983;SDS011;4037;47.980;10.172;2023-03-01T04:01:56;27.57;;;18.60;;
7983;SDS011;4037;47.980;10.172;2023-03-01T04:04:22;26.20;;;17.90;;
7983;SDS011;4037;47.980;10.172;2023-03-01T04:06:48;26.13;;;18.57;;
7983;SDS011;4037;47.980;10.172;2023-03-01T04:09:14;26.97;;;18.50;;
7983;SDS011;4037;47.980;10.172;2023-03-01T04:11:40;28.20;;;18.17;;
7983;SDS011;4037;47.980;10.172;2023-03-01T04:14:06;30.47;;;19.00;;
7983;SDS011;4037;47.980;10.172;2023-03-01T04:16:32;30.10;;;19.00;;
7983;SDS011;4037;47.980;10.172;2023-03-01T04:18:58;29.70;;;19.57;;
7983;SDS011;4037;47.980;10.172;2023-03-01T04:21:25;29.53;;;18.37;;
7983;SDS011;4037;47.980;10.172;2023-03-01T04:23:51;27.90;;;18.70;;
7983;SDS011;4037;47.980;10.172;2023-03-01T04:26:18;28.60;;;18.67;;
7983;SDS011;4037;47.980;10.172;2023-03-01T04:28:45;24.30;;;18.20;;
7983;SDS011;4037;47.980;10.172;2023-03-01T04:31:13;25.70;;;18.87;;
7983;SDS011;4037;47.980;10.172;2023-03-01T04:33:42;28.07;;;18.57;;
7983;SDS011;4037;47.980;10.172;2023-03-01T04:36:09;29.20;;;19.60;;
7983;SDS011;4037;47.980;10.172;2023-03-01T04:38:36;28.20;;;19.60;;
7983;SDS011;4037;47.980;10.172;2023-03-01T04:41:03;30.10;;;19.67;;
7983;SDS011;4037;47.980;10.172;2023-03-01T04:43:29;25.17;;;18.43;;
7983;SDS011;4037;47.980;10.172;2023-03-01T04:45:59;24.73;;;18.13;;
7983;SDS011;4037;47.980;10.172;2023-03-01T04:48:27;28.17;;;18.97;;
7983;SDS011;4037;47.980;10.172;2023-03-01T04:50:53;28.43;;;19.10;;
7983;SDS011;4037;47.980;10.172;2023-03-01T04:53:19;28.53;;;19.93;;
7983;SDS011;4037;47.980;10.172;2023-03-01T04:55:45;26.47;;;18.77;;
7983;SDS011;4037;47.980;10.172;2023-03-01T04:58:11;29.03;;;19.13;;
7983;SDS011;4037;47.980;10.172;2023-03-01T05:00:37;28.17;;;19.43;;
7983;SDS011;4037;47.980;10.172;2023-03-01T05:03:03;31.13;;;18.80;;
7983;SDS011;4037;47.980;10.172;2023-03-01T05:05:33;33.17;;;20.83;;
7983;SDS011;4037;47.980;10.172;2023-03-01T05:08:01;27.67;;;18.77;;
7983;SDS011;4037;47.980;10.172;2023-03-01T05:10:28;28.63;;;19.17;;
7983;SDS011;4037;47.980;10.172;2023-03-01T05:12:55;29.33;;;18.97;;
7983;SDS011;4037;47.980;10.172;2023-03-01T05:15:22;27.13;;;18.57;;
7983;SDS011;4037;47.980;10.172;2023-03-01T05:17:50;33.13;;;18.60;;
7983;SDS011;4037;47.980;10.172;2023-03-01T05:20:17;31.07;;;19.53;;
7983;SDS011;4037;47.980;10.172;2023-03-01T05:22:43;31.23;;;19.30;;
7983;SDS011;4037;47.980;10.172;2023-03-01T05:25:09;31.13;;;19.93;;
7983;SDS011;4037;47.980;10.172;2023-03-01T05:27:35;27.57;;;19.33;;
7983;SDS011;4037;47.980;10.172;2023-03-01T05:30:02;30.97;;;20.67;;
7983;SDS011;4037;47.980;10.172;2023-03-01T05:32:41;30.63;;;20.40;;
7983;SDS011;4037;47.980;10.172;2023-03-01T05:35:11;30.17;;;20.23;;
7983;SDS011;4037;47.980;10.172;2023-03-01T05:37:44;29.83;;;20.43;;
7983;SDS011;4037;47.980;10.172;2023-03-01T05:40:11;31.43;;;21.70;;
7983;SDS011;4037;47.980;10.172;2023-03-01T05:43:01;28.33;;;19.67;;
7983;SDS011;4037;47.980;10.172;2023-03-01T05:45:30;29.17;;;19.37;;
7983;SDS011;4037;47.980;10.172;2023-03-01T05:47:57;28.13;;;20.13;;
7983;SDS011;4037;47.980;10.172;2023-03-01T05:50:27;31.10;;;19.80;;
7983;SDS011;4037;47.980;10.172;2023-03-01T05:53:04;33.63;;;20.77;;
7983;SDS011;4037;47.980;10.172;2023-03-01T05:55:33;30.37;;;18.80;;
7983;SDS011;4037;47.980;10.172;2023-03-01T05:58:00;30.77;;;20.00;;
7983;SDS011;4037;47.980;10.172;2023-03-01T06:00:27;27.60;;;19.37;;
7983;SDS011;4037;47.980;10.172;2023-03-01T06:02:54;30.57;;;19.53;;
7983;SDS011;4037;47.980;10.172;2023-03-01T06:05:20;28.90;;;19.40;;
7983;SDS011;4037;47.980;10.172;2023-03-01T06:07:46;32.40;;;21.33;;
7983;SDS011;4037;47.980;10.172;2023-03-01T06:10:12;28.47;;;19.80;;
7983;SDS011;4037;47.980;10.172;2023-03-01T06:12:38;29.53;;;19.43;;
7983;SDS011;4037;47.980;10.172;2023-03-01T06:15:05;28.57;;;18.37;;
7983;SDS011;4037;47.980;10.172;2023-03-01T06:17:32;29.00;;;19.67;;
7983;SDS011;4037;47.980;10.172;2023-03-01T06:20:02;30.33;;;19.50;;
7983;SDS011;4037;47.980;10.172;2023-03-01T06:22:28;26.87;;;18.73;;
7983;SDS011;4037;47.980;10.172;2023-03-01T06:24:54;28.80;;;19.27;;
7983;SDS011;4037;47.980;10.172;2023-03-01T06:27:20;29.77;;;19.13;;
7983;SDS011;4037;47.980;10.172;2023-03-01T06:29:46;29.57;;;18.97;;
7983;SDS011;4037;47.980;10.172;2023-03-01T06:32:13;30.40;;;20.70;;
7983;SDS011;4037;47.980;10.172;2023-03-01T06:34:39;27.67;;;19.73;;
7983;SDS011;4037;47.980;10.172;2023-03-01T06:37:05;28.60;;;18.87;;
7983;SDS011;4037;47.980;10.172;2023-03-01T06:39:32;29.20;;;19.40;;
7983;SDS011;4037;47.980;10.172;2023-03-01T06:41:58;29.93;;;19.13;;
7983;SDS011;4037;47.980;10.172;2023-03-01T06:44:24;30.80;;;19.87;;
7983;SDS011;4037;47.980;10.172;2023-03-01T06:46:51;25.47;;;17.97;;
7983;SDS011;4037;47.980;10.172;2023-03-01T06:49:16;27.13;;;18.23;;
7983;SDS011;4037;47.980;10.172;2023-03-01T06:51:43;25.67;;;17.37;;
7983;SDS011;4037;47.980;10.172;2023-03-01T06:54:09;25.70;;;17.23;;
7983;SDS011;4037;47.980;10.172;2023-03-01T06:56:35;27.23;;;18.63;;
7983;SDS011;4037;47.980;10.172;2023-03-01T06:59:01;25.37;;;18.23;;
7983;SDS011;4037;47.980;10.172;2023-03-01T07:01:28;25.50;;;17.37;;
7983;SDS011;4037;47.980;10.172;2023-03-01T07:03:54;27.70;;;17.20;;
7983;SDS011;4037;47.980;10.172;2023-03-01T07:06:21;25.43;;;17.80;;
7983;SDS011;4037;47.980;10.172;2023-03-01T07:08:47;26.60;;;17.57;;
7983;SDS011;4037;47.980;10.172;2023-03-01T07:11:13;28.90;;;19.00;;
7983;SDS011;4037;47.980;10.172;2023-03-01T07:13:39;27.23;;;18.73;;
7983;SDS011;4037;47.980;10.172;2023-03-01T07:16:05;28.67;;;18.53;;
7983;SDS011;4037;47.980;10.172;2023-03-01T07:18:31;26.60;;;18.33;;
7983;SDS011;4037;47.980;10.172;2023-03-01T07:20:57;27.37;;;17.73;;
7983;SDS011;4037;47.980;10.172;2023-03-01T07:23:23;27.10;;;17.90;;
7983;SDS011;4037;47.980;10.172;2023-03-01T07:25:53;28.83;;;18.53;;
7983;SDS011;4037;47.980;10.172;2023-03-01T07:28:19;26.33;;;17.50;;
7983;SDS011;4037;47.980;10.172;2023-03-01T07:30:45;24.90;;;17.30;;
7983;SDS011;4037;47.980;10.172;2023-03-01T07:33:11;27.13;;;18.67;;
7983;SDS011;4037;47.980;10.172;2023-03-01T07:35:37;27.00;;;18.00;;
7983;SDS011;4037;47.980;10.172;2023-03-01T07:38:03;26.67;;;19.00;;
7983;SDS011;4037;47.980;10.172;2023-03-01T07:40:29;25.83;;;18.07;;
7983;SDS011;4037;47.980;10.172;2023-03-01T07:42:58;26.50;;;18.77;;
7983;SDS011;4037;47.980;10.172;2023-03-01T07:45:24;26.73;;;18.17;;
7983;SDS011;4037;47.980;10.172;2023-03-01T07:47:51;26.70;;;17.20;;
7983;SDS011;4037;47.980;10.172;2023-03-01T07:50:17;26.93;;;17.80;;
7983;SDS011;4037;47.980;10.172;2023-03-01T07:52:47;28.33;;;18.60;;
7983;SDS011;4037;47.980;10.172;2023-03-01T07:55:13;31.33;;;19.07;;
7983;SDS011;4037;47.980;10.172;2023-03-01T07:57:39;30.63;;;17.97;;
7983;SDS011;4037;47.980;10.172;2023-03-01T08:00:05;28.03;;;18.67;;
7983;SDS011;4037;47.980;10.172;2023-03-01T08:02:32;23.83;;;17.67;;
7983;SDS011;4037;47.980;10.172;2023-03-01T08:04:58;26.73;;;19.03;;
7983;SDS011;4037;47.980;10.172;2023-03-01T08:07:24;25.93;;;17.97;;
7983;SDS011;4037;47.980;10.172;2023-03-01T08:09:50;28.50;;;19.17;;
7983;SDS011;4037;47.980;10.172;2023-03-01T08:12:16;23.83;;;17.47;;
7983;SDS011;4037;47.980;10.172;2023-03-01T08:14:42;27.43;;;19.40;;
7983;SDS011;4037;47.980;10.172;2023-03-01T08:17:08;27.50;;;18.60;;
7983;SDS011;4037;47.980;10.172;2023-03-01T08:19:34;30.57;;;18.53;;
7983;SDS011;4037;47.980;10.172;2023-03-01T08:22:03;29.00;;;18.90;;
7983;SDS011;4037;47.980;10.172;2023-03-01T08:24:29;30.40;;;19.30;;
7983;SDS011;4037;47.980;10.172;2023-03-01T08:26:55;27.60;;;18.00;;
7983;SDS011;4037;47.980;10.172;2023-03-01T08:29:21;26.87;;;19.40;;
7983;SDS011;4037;47.980;10.172;2023-03-01T08:31:49;28.30;;;18.60;;
7983;SDS011;4037;47.980;10.172;2023-03-01T08:34:16;27.27;;;19.20;;
7983;SDS011;4037;47.980;10.172;2023-03-01T08:36:43;26.17;;;17.33;;
7983;SDS011;4037;47.980;10.172;2023-03-01T08:39:10;29.20;;;19.93;;
7983;SDS011;4037;47.980;10.172;2023-03-01T08:41:36;28.57;;;19.93;;
7983;SDS011;4037;47.980;10.172;2023-03-01T08:44:02;25.80;;;18.73;;
7983;SDS011;4037;47.980;10.172;2023-03-01T08:46:29;30.33;;;19.20;;
7983;SDS011;4037;47.980;10.172;2023-03-01T08:48:55;29.70;;;19.90;;
7983;SDS011;4037;47.980;10.172;2023-03-01T08:51:22;28.30;;;20.43;;
7983;SDS011;4037;47.980;10.172;2023-03-01T08:53:48;32.33;;;19.13;;
7983;SDS011;4037;47.980;10.172;2023-03-01T08:56:14;31.13;;;20.17;;
7983;SDS011;4037;47.980;10.172;2023-03-01T08:58:43;30.43;;;21.03;;
7983;SDS011;4037;47.980;10.172;2023-03-01T09:01:11;31.00;;;19.63;;
7983;SDS011;4037;47.980;10.172;2023-03-01T09:03:37;27.93;;;19.67;;
7983;SDS011;4037;47.980;10.172;2023-03-01T09:06:04;28.67;;;20.13;;
7983;SDS011;4037;47.980;10.172;2023-03-01T09:08:31;30.43;;;20.17;;
7983;SDS011;4037;47.980;10.172;2023-03-01T09:11:01;29.07;;;19.10;;
7983;SDS011;4037;47.980;10.172;2023-03-01T09:13:27;27.87;;;19.63;;
7983;SDS011;4037;47.980;10.172;2023-03-01T09:15:56;28.23;;;19.73;;
7983;SDS011;4037;47.980;10.172;2023-03-01T09:18:22;33.37;;;19.60;;
7983;SDS011;4037;47.980;10.172;2023-03-01T09:21:00;35.93;;;21.40;;
7983;SDS011;4037;47.980;10.172;2023-03-01T09:23:46;32.20;;;20.83;;
7983;SDS011;4037;47.980;10.172;2023-03-01T09:26:28;30.93;;;21.50;;
7983;SDS011;4037;47.980;10.172;2023-03-01T09:28:54;33.63;;;22.33;;
7983;SDS011;4037;47.980;10.172;2023-03-01T09:31:21;32.10;;;21.13;;
7983;SDS011;4037;47.980;10.172;2023-03-01T09:33:48;31.67;;;20.80;;
7983;SDS011;4037;47.980;10.172;2023-03-01T09:36:16;38.23;;;22.07;;
7983;SDS011;4037;47.980;10.172;2023-03-01T09:38:42;32.40;;;21.17;;
7983;SDS011;4037;47.980;10.172;2023-03-01T09:41:09;37.10;;;22.27;;
7983;SDS011;4037;47.980;10.172;2023-03-01T09:43:52;31.93;;;21.73;;
7983;SDS011;4037;47.980;10.172;2023-03-01T09:46:20;34.03;;;20.00;;
7983;SDS011;4037;47.980;10.172;2023-03-01T09:48:58;34.00;;;21.90;;
7983;SDS011;4037;47.980;10.172;2023-03-01T09:51:26;33.03;;;20.50;;
7983;SDS011;4037;47.980;10.172;2023-03-01T09:53:52;28.63;;;18.93;;
7983;SDS011;4037;47.980;10.172;2023-03-01T09:56:22;31.37;;;21.40;;
7983;SDS011;4037;47.980;10.172;2023-03-01T10:03:51;32.67;;;21.30;;
7983;SDS011;4037;47.980;10.172;2023-03-01T10:06:22;32.00;;;20.50;;
7983;SDS011;4037;47.980;10.172;2023-03-01T10:08:56;32.00;;;20.73;;
7983;SDS011;4037;47.980;10.172;2023-03-01T10:11:26;29.73;;;21.33;;
7983;SDS011;4037;47.980;10.172;2023-03-01T10:17:03;29.00;;;19.37;;
7983;SDS011;4037;47.980;10.172;2023-03-01T10:19:11;27.83;;;19.53;;
7983;SDS011;4037;47.980;10.172;2023-03-01T10:21:41;29.50;;;20.43;;
7983;SDS011;4037;47.980;10.172;2023-03-01T10:24:10;28.37;;;18.93;;
7983;SDS011;4037;47.980;10.172;2023-03-01T10:29:08;29.90;;;18.23;;
7983;SDS011;4037;47.980;10.172;2023-03-01T10:31:39;34.33;;;20.30;;
7983;SDS011;4037;47.980;10.172;2023-03-01T10:34:19;29.60;;;20.33;;
7983;SDS011;4037;47.980;10.172;2023-03-01T10:36:49;29.83;;;19.50;;
7983;SDS011;4037;47.980;10.172;2023-03-01T10:39:23;26.93;;;20.00;;
7983;SDS011;4037;47.980;10.172;2023-03-01T10:42:19;37.80;;;21.67;;
7983;SDS011;4037;47.980;10.172;2023-03-01T10:47:15;33.17;;;20.80;;
7983;SDS011;4037;47.980;10.172;2023-03-01T10:50:01;30.87;;;20.10;;
7983;SDS011;4037;47.980;10.172;2023-03-01T10:52:32;29.87;;;20.13;;
7983;SDS011;4037;47.980;10.172;2023-03-01T10:55:00;32.03;;;20.67;;
7983;SDS011;4037;47.980;10.172;2023-03-01T10:57:28;33.43;;;20.63;;
7983;SDS011;4037;47.980;10.172;2023-03-01T11:00:10;29.90;;;20.03;;
7983;SDS011;4037;47.980;10.172;2023-03-01T11:02:41;29.97;;;19.87;;
7983;SDS011;4037;47.980;10.172;2023-03-01T11:07:51;31.17;;;19.80;;
7983;SDS011;4037;47.980;10.172;2023-03-01T11:10:29;31.07;;;20.13;;
7983;SDS011;4037;47.980;10.172;2023-03-01T11:13:08;28.57;;;19.07;;
7983;SDS011;4037;47.980;10.172;2023-03-01T11:15:39;32.30;;;21.47;;
7983;SDS011;4037;47.980;10.172;2023-03-01T11:18:05;28.60;;;19.50;;
7983;SDS011;4037;47.980;10.172;2023-03-01T11:20:43;30.40;;;20.80;;
7983;SDS011;4037;47.980;10.172;2023-03-01T11:23:10;30.30;;;20.90;;
7983;SDS011;4037;47.980;10.172;2023-03-01T11:25:37;32.13;;;19.37;;
7983;SDS011;4037;47.980;10.172;2023-03-01T11:28:04;33.33;;;21.70;;
7983;SDS011;4037;47.980;10.172;2023-03-01T11:30:41;31.67;;;20.90;;
7983;SDS011;4037;47.980;10.172;2023-03-01T11:33:17;33.83;;;20.83;;
7983;SDS011;4037;47.980;10.172;2023-03-01T11:35:46;36.47;;;23.03;;
7983;SDS011;4037;47.980;10.172;2023-03-01T11:43:09;32.03;;;20.77;;
7983;SDS011;4037;47.980;10.172;2023-03-01T11:48:29;33.50;;;21.73;;
7983;SDS011;4037;47.980;10.172;2023-03-01T11:50:59;34.43;;;21.00;;
7983;SDS011;4037;47.980;10.172;2023-03-01T12:04:43;32.20;;;21.30;;
7983;SDS011;4037;47.980;10.172;2023-03-01T12:10:19;32.03;;;20.70;;
7983;SDS011;4037;47.980;10.172;2023-03-01T12:18:13;29.60;;;20.57;;
7983;SDS011;4037;47.980;10.172;2023-03-01T12:20:51;32.47;;;20.37;;
7983;SDS011;4037;47.980;10.172;2023-03-01T12:25:56;32.23;;;21.87;;
7983;SDS011;4037;47.980;10.172;2023-03-01T12:31:00;33.50;;;21.93;;
7983;SDS011;4037;47.980;10.172;2023-03-01T12:33:37;34.30;;;22.47;;
7983;SDS011;4037;47.980;10.172;2023-03-01T12:52:14;33.67;;;21.60;;
7983;SDS011;4037;47.980;10.172;2023-03-01T12:54:41;37.87;;;22.50;;
7983;SDS011;4037;47.980;10.172;2023-03-01T12:57:22;32.20;;;21.17;;
7983;SDS011;4037;47.980;10.172;2023-03-01T13:00:06;36.60;;;22.57;;
7983;SDS011;4037;47.980;10.172;2023-03-01T13:02:36;32.50;;;22.43;;
7983;SDS011;4037;47.980;10.172;2023-03-01T13:12:46;34.10;;;21.30;;
7983;SDS011;4037;47.980;10.172;2023-03-01T13:17:58;38.33;;;22.07;;
7983;SDS011;4037;47.980;10.172;2023-03-01T13:20:57;35.37;;;22.70;;
7983;SDS011;4037;47.980;10.172;2023-03-01T13:26:02;32.67;;;20.93;;
7983;SDS011;4037;47.980;10.172;2023-03-01T13:30:58;34.27;;;21.33;;
7983;SDS011;4037;47.980;10.172;2023-03-01T13:35:53;29.50;;;21.00;;
7983;SDS011;4037;47.980;10.172;2023-03-01T13:41:06;32.07;;;20.27;;
7983;SDS011;4037;47.980;10.172;2023-03-01T13:43:32;32.73;;;21.40;;
7983;SDS011;4037;47.980;10.172;2023-03-01T13:46:16;28.43;;;20.87;;
7983;SDS011;4037;47.980;10.172;2023-03-01T13:48:44;32.73;;;20.40;;
7983;SDS011;4037;47.980;10.172;2023-03-01T13:51:11;34.33;;;22.03;;
7983;SDS011;4037;47.980;10.172;2023-03-01T13:53:44;29.23;;;19.97;;
7983;SDS011;4037;47.980;10.172;2023-03-01T13:56:15;33.50;;;22.70;;
7983;SDS011;4037;47.980;10.172;2023-03-01T14:01:21;31.97;;;20.87;;
7983;SDS011;4037;47.980;10.172;2023-03-01T14:03:47;30.57;;;20.23;;
7983;SDS011;4037;47.980;10.172;2023-03-01T14:06:14;33.67;;;21.73;;
7983;SDS011;4037;47.980;10.172;2023-03-01T14:08:42;30.63;;;20.00;;
7983;SDS011;4037;47.980;10.172;2023-03-01T14:16:35;29.27;;;19.87;;
7983;SDS011;4037;47.980;10.172;2023-03-01T14:19:20;31.13;;;21.23;;
7983;SDS011;4037;47.980;10.172;2023-03-01T14:24:37;31.03;;;20.30;;
7983;SDS011;4037;47.980;10.172;2023-03-01T14:27:04;31.07;;;20.27;;
7983;SDS011;4037;47.980;10.172;2023-03-01T14:29:34;33.33;;;21.07;;
7983;SDS011;4037;47.980;10.172;2023-03-01T14:32:18;30.40;;;19.90;;
7983;SDS011;4037;47.980;10.172;2023-03-01T14:34:46;28.43;;;19.73;;
7983;SDS011;4037;47.980;10.172;2023-03-01T14:37:24;28.03;;;19.67;;
7983;SDS011;4037;47.980;10.172;2023-03-01T14:39:50;28.90;;;19.60;;
7983;SDS011;4037;47.980;10.172;2023-03-01T14:42:16;27.60;;;19.40;;
7983;SDS011;4037;47.980;10.172;2023-03-01T14:44:43;26.47;;;19.60;;
7983;SDS011;4037;47.980;10.172;2023-03-01T14:50:23;31.87;;;20.13;;
7983;SDS011;4037;47.980;10.172;2023-03-01T14:52:50;27.57;;;20.50;;
7983;SDS011;4037;47.980;10.172;2023-03-01T14:55:18;27.73;;;19.90;;
7983;SDS011;4037;47.980;10.172;2023-03-01T14:57:48;27.77;;;20.03;;
7983;SDS011;4037;47.980;10.172;2023-03-01T15:00:21;30.43;;;20.43;;
7983;SDS011;4037;47.980;10.172;2023-03-01T15:02:48;24.57;;;18.53;;
7983;SDS011;4037;47.980;10.172;2023-03-01T15:05:14;27.40;;;18.87;;
7983;SDS011;4037;47.980;10.172;2023-03-01T15:07:41;27.77;;;21.50;;
7983;SDS011;4037;47.980;10.172;2023-03-01T15:10:20;26.67;;;20.43;;
7983;SDS011;4037;47.980;10.172;2023-03-01T15:12:47;26.63;;;19.93;;
7983;SDS011;4037;47.980;10.172;2023-03-01T15:18:12;27.73;;;19.67;;
7983;SDS011;4037;47.980;10.172;2023-03-01T15:20:39;32.10;;;19.93;;
7983;SDS011;4037;47.980;10.172;2023-03-01T15:23:05;26.70;;;19.23;;
7983;SDS011;4037;47.980;10.172;2023-03-01T15:25:31;28.23;;;19.63;;
7983;SDS011;4037;47.980;10.172;2023-03-01T15:27:59;28.50;;;20.17;;
7983;SDS011;4037;47.980;10.172;2023-03-01T15:30:27;30.17;;;21.47;;
7983;SDS011;4037;47.980;10.172;2023-03-01T15:36:01;28.97;;;19.33;;
7983;SDS011;4037;47.980;10.172;2023-03-01T15:38:50;29.20;;;20.43;;
7983;SDS011;4037;47.980;10.172;2023-03-01T15:41:23;30.57;;;21.30;;
7983;SDS011;4037;47.980;10.172;2023-03-01T15:43:50;29.50;;;21.17;;
7983;SDS011;4037;47.980;10.172;2023-03-01T15:46:32;28.47;;;20.80;;
7983;SDS011;4037;47.980;10.172;2023-03-01T15:49:02;30.53;;;20.47;;
7983;SDS011;4037;47.980;10.172;2023-03-01T15:51:30;31.50;;;20.90;;
7983;SDS011;4037;47.980;10.172;2023-03-01T15:53:58;30.83;;;20.03;;
7983;SDS011;4037;47.980;10.172;2023-03-01T15:56:24;31.67;;;20.30;;
7983;SDS011;4037;47.980;10.172;2023-03-01T15:58:50;32.13;;;21.40;;
7983;SDS011;4037;47.980;10.172;2023-03-01T16:01:17;28.77;;;21.50;;
7983;SDS011;4037;47.980;10.172;2023-03-01T16:03:43;30.70;;;20.07;;
7983;SDS011;4037;47.980;10.172;2023-03-01T16:06:10;34.50;;;21.67;;
7983;SDS011;4037;47.980;10.172;2023-03-01T16:08:39;31.27;;;20.80;;
7983;SDS011;4037;47.980;10.172;2023-03-01T16:11:16;30.93;;;20.80;;
7983;SDS011;4037;47.980;10.172;2023-03-01T16:13:43;33.10;;;21.33;;
7983;SDS011;4037;47.980;10.172;2023-03-01T16:16:12;28.27;;;20.23;;
7983;SDS011;4037;47.980;10.172;2023-03-01T16:18:41;28.80;;;19.00;;
7983;SDS011;4037;47.980;10.172;2023-03-01T16:21:10;30.10;;;19.83;;
7983;SDS011;4037;47.980;10.172;2023-03-01T16:23:37;29.60;;;19.10;;
7983;SDS011;4037;47.980;10.172;2023-03-01T16:26:03;29.37;;;19.70;;
7983;SDS011;4037;47.980;10.172;2023-03-01T16:28:29;31.07;;;20.43;;
7983;SDS011;4037;47.980;10.172;2023-03-01T16:30:55;32.83;;;21.43;;
7983;SDS011;4037;47.980;10.172;2023-03-01T16:33:21;31.87;;;20.33;;
7983;SDS011;4037;47.980;10.172;2023-03-01T16:35:47;31.67;;;20.87;;
7983;SDS011;4037;47.980;10.172;2023-03-01T16:38:14;29.77;;;20.37;;
7983;SDS011;4037;47.980;10.172;2023-03-01T16:40:40;30.80;;;20.27;;
7983;SDS011;4037;47.980;10.172;2023-03-01T16:43:12;31.00;;;20.03;;
7983;SDS011;4037;47.980;10.172;2023-03-01T16:45:38;33.43;;;21.13;;
7983;SDS011;4037;47.980;10.172;2023-03-01T16:48:05;33.93;;;22.37;;